createdAt,value
2023-05-13T00:00:39.369Z,7.2183
2023-05-13T00:01:41.713Z,6.7323
2023-05-13T00:02:44.126Z,6.7479
2023-05-13T00:03:46.500Z,6.6996
2023-05-13T00:04:48.697Z,6.7798
2023-05-13T00:05:51.048Z,6.9996
2023-05-13T00:06:53.370Z,6.9556
2023-05-13T00:07:55.708Z,6.2294
2023-05-13T00:08:58.058Z,6.1542
2023-05-13T00:10:00.413Z,6.6273
2023-05-13T00:11:02.712Z,6.5974
2023-05-13T00:12:05.042Z,6.3157
2023-05-13T00:13:07.373Z,6.8993
2023-05-13T00:14:09.755Z,6.5157
2023-05-13T00:15:12.050Z,6.7729
2023-05-13T00:16:14.418Z,6.8358
2023-05-13T00:17:16.727Z,6.7078
2023-05-13T00:18:19.075Z,6.9423
2023-05-13T00:19:21.418Z,6.8435
2023-05-13T00:20:23.847Z,6.5151
2023-05-13T00:21:26.063Z,6.9835
2023-05-13T00:22:28.393Z,6.9892
2023-05-13T00:23:30.725Z,6.8474
2023-05-13T00:24:33.080Z,7.1083
2023-05-13T00:25:35.405Z,7.2410
2023-05-13T00:26:37.734Z,7.2894
2023-05-13T00:27:40.070Z,7.2494
2023-05-13T00:28:42.403Z,7.6837
2023-05-13T00:29:44.797Z,7.5804
2023-05-13T00:30:47.080Z,7.5084
2023-05-13T00:31:49.451Z,7.1809
2023-05-13T00:32:51.816Z,7.3080
2023-05-13T00:33:54.099Z,7.9378
2023-05-13T00:34:56.431Z,7.1173
2023-05-13T00:35:58.754Z,7.1726
2023-05-13T00:37:01.090Z,7.2245
2023-05-13T00:38:03.444Z,7.8343
2023-05-13T00:39:05.766Z,7.4665
2023-05-13T00:40:08.108Z,7.0737
2023-05-13T00:41:10.443Z,7.3193
2023-05-13T00:42:12.783Z,7.4578
2023-05-13T00:43:15.112Z,7.9018
2023-05-13T00:44:17.463Z,7.7592
2023-05-13T00:45:19.813Z,7.3508
2023-05-13T00:46:22.307Z,7.7462
2023-05-13T00:47:24.502Z,7.8786
2023-05-13T00:48:26.797Z,7.4653
2023-05-13T00:49:29.126Z,7.1457
2023-05-13T00:50:31.479Z,7.4400
2023-05-13T00:51:33.803Z,7.4041
2023-05-13T00:52:36.126Z,7.6378
2023-05-13T00:53:38.456Z,7.2595
2023-05-13T00:54:40.816Z,7.6614
2023-05-13T00:55:43.180Z,7.7053
2023-05-13T00:56:45.473Z,7.3160
2023-05-13T00:57:47.802Z,7.2123
2023-05-13T00:58:50.142Z,7.7238
2023-05-13T00:59:52.467Z,7.6533
2023-05-13T01:00:54.836Z,7.8430
2023-05-13T01:01:57.168Z,7.6962
2023-05-13T01:02:59.548Z,8.1256
2023-05-13T01:04:01.809Z,8.2324
2023-05-13T01:05:04.159Z,8.4324
2023-05-13T01:06:06.496Z,7.2560
2023-05-13T01:07:08.840Z,7.8078
2023-05-13T01:08:11.156Z,7.7893
2023-05-13T01:09:13.514Z,8.9931
2023-05-13T01:10:15.834Z,8.1738
2023-05-13T01:11:18.172Z,8.1352
2023-05-13T01:12:20.530Z,8.4036
2023-05-13T01:13:22.845Z,8.4906
2023-05-13T01:14:25.185Z,9.0502
2023-05-13T01:15:27.530Z,8.7019
2023-05-13T01:16:29.888Z,8.1260
2023-05-13T01:17:32.288Z,8.6807
2023-05-13T01:18:34.636Z,8.9037
2023-05-13T01:19:36.881Z,8.9693
2023-05-13T01:20:39.201Z,9.0325
2023-05-13T01:21:41.540Z,9.0500
2023-05-13T01:22:43.887Z,8.6595
2023-05-13T01:23:46.226Z,8.9269
2023-05-13T01:24:48.550Z,8.0353
2023-05-13T01:25:50.906Z,8.7498
2023-05-13T01:26:53.218Z,8.8392
2023-05-13T01:27:55.558Z,9.2544
2023-05-13T01:28:57.917Z,9.0610
2023-05-13T01:30:00.229Z,9.8315
2023-05-13T01:31:02.589Z,8.4991
2023-05-13T01:32:04.957Z,9.0452
2023-05-13T01:33:07.332Z,9.5599
2023-05-13T01:34:09.598Z,9.3537
2023-05-13T01:35:11.936Z,9.4863
2023-05-13T01:36:14.273Z,8.7931
2023-05-13T01:37:16.592Z,9.1331
2023-05-13T01:38:18.925Z,9.5866
2023-05-13T01:39:21.284Z,9.6863
2023-05-13T01:40:32.281Z,8.7044
2023-05-13T01:41:25.939Z,9.0074
2023-05-13T01:42:28.273Z,9.1549
2023-05-13T01:43:30.605Z,8.8064
2023-05-13T01:44:32.982Z,9.4033
2023-05-13T01:45:35.285Z,9.6749
2023-05-13T01:46:37.644Z,9.1685
2023-05-13T01:47:39.976Z,8.7213
2023-05-13T01:48:42.293Z,9.6616
2023-05-13T01:49:44.638Z,9.4199
2023-05-13T01:50:46.966Z,9.0980
2023-05-13T01:51:49.318Z,9.0461
2023-05-13T01:52:51.639Z,9.1653
2023-05-13T01:53:53.974Z,8.5528
2023-05-13T01:54:56.342Z,8.9238
2023-05-13T01:55:58.650Z,8.8839
2023-05-13T01:57:00.992Z,8.5325
2023-05-13T01:58:03.331Z,9.2385
2023-05-13T01:59:05.665Z,9.5490
2023-05-13T02:00:08.003Z,10.0479
2023-05-13T02:01:10.332Z,9.3034
2023-05-13T02:02:12.703Z,7.7670
2023-05-13T02:03:15.075Z,9.5745
2023-05-13T02:04:17.344Z,9.3229
2023-05-13T02:05:19.691Z,10.5550
2023-05-13T02:06:22.008Z,9.8119
2023-05-13T02:07:24.345Z,9.7867
2023-05-13T02:08:26.675Z,9.5179
2023-05-13T02:09:29.022Z,9.3163
2023-05-13T02:10:31.385Z,8.4811
2023-05-13T02:11:33.683Z,9.0784
2023-05-13T02:12:36.018Z,9.3475
2023-05-13T02:13:38.365Z,9.7672
2023-05-13T02:14:40.686Z,9.6096
2023-05-13T02:15:43.028Z,8.4672
2023-05-13T02:16:45.436Z,9.8033
2023-05-13T02:17:47.703Z,9.6829
2023-05-13T02:18:50.059Z,9.6578
2023-05-13T02:19:52.457Z,8.8767
2023-05-13T02:20:54.691Z,9.5672
2023-05-13T02:21:57.016Z,9.6289
2023-05-13T02:22:59.368Z,9.2399
2023-05-13T02:24:01.713Z,9.0943
2023-05-13T02:25:04.037Z,9.1361
2023-05-13T02:26:06.361Z,10.0729
2023-05-13T02:27:08.712Z,10.3142
2023-05-13T02:28:11.035Z,10.0433
2023-05-13T02:29:13.372Z,9.6710
2023-05-13T02:30:15.715Z,8.8170
2023-05-13T02:31:18.037Z,9.7207
2023-05-13T02:32:20.382Z,9.5486
2023-05-13T02:33:22.704Z,8.8998
2023-05-13T02:34:25.038Z,8.6206
2023-05-13T02:35:27.376Z,10.4225
2023-05-13T02:36:29.710Z,10.0153
2023-05-13T02:37:32.045Z,10.0962
2023-05-13T02:38:34.448Z,9.9946
2023-05-13T02:39:36.753Z,10.2305
2023-05-13T02:40:39.045Z,10.5447
2023-05-13T02:41:41.368Z,10.4520
2023-05-13T02:42:43.725Z,9.7333
2023-05-13T02:43:46.029Z,9.4871
2023-05-13T02:44:48.384Z,10.3248
2023-05-13T02:45:50.751Z,10.5460
2023-05-13T02:46:53.034Z,9.8902
2023-05-13T02:47:55.385Z,10.1678
2023-05-13T02:48:57.695Z,8.8495
2023-05-13T02:50:00.068Z,9.6590
2023-05-13T02:51:02.368Z,9.9076
2023-05-13T02:52:04.698Z,10.3155
2023-05-13T02:53:07.033Z,9.4487
2023-05-13T02:54:09.372Z,9.8655
2023-05-13T02:55:11.725Z,9.3600
2023-05-13T02:56:14.036Z,10.2204
2023-05-13T02:57:16.361Z,10.1121
2023-05-13T02:58:18.735Z,10.0363
2023-05-13T02:59:21.036Z,9.9298
2023-05-13T03:00:23.539Z,9.4215
2023-05-13T03:01:25.720Z,10.2333
2023-05-13T03:02:28.205Z,10.6097
2023-05-13T03:03:30.438Z,9.5835
2023-05-13T03:04:32.706Z,9.7964
2023-05-13T03:05:35.054Z,9.4322
2023-05-13T03:06:37.384Z,9.4522
2023-05-13T03:07:39.827Z,9.5494
2023-05-13T03:08:42.128Z,10.2212
2023-05-13T03:09:44.463Z,10.3145
2023-05-13T03:10:46.807Z,10.6238
2023-05-13T03:11:49.141Z,10.4675
2023-05-13T03:12:51.462Z,11.1376
2023-05-13T03:13:53.795Z,11.3167
2023-05-13T03:14:56.170Z,10.1824
2023-05-13T03:15:58.569Z,10.8035
2023-05-13T03:17:00.804Z,10.6008
2023-05-13T03:18:03.159Z,10.8081
2023-05-13T03:19:05.553Z,10.5307
2023-05-13T03:20:07.819Z,10.6677
2023-05-13T03:21:10.156Z,10.0567
2023-05-13T03:22:12.490Z,10.8974
2023-05-13T03:23:14.813Z,10.8313
2023-05-13T03:24:17.150Z,11.3624
2023-05-13T03:25:19.488Z,10.5652
2023-05-13T03:26:21.836Z,9.2695
2023-05-13T03:27:24.153Z,10.9828
2023-05-13T03:28:26.498Z,10.5989
2023-05-13T03:29:28.815Z,10.5609
2023-05-13T03:30:31.168Z,10.4372
2023-05-13T03:31:33.554Z,10.9653
2023-05-13T03:32:35.851Z,10.5482
2023-05-13T03:33:38.156Z,10.3915
2023-05-13T03:34:40.488Z,11.1846
2023-05-13T03:35:42.836Z,10.6515
2023-05-13T03:36:45.178Z,10.7729
2023-05-13T03:37:47.515Z,10.5123
2023-05-13T03:38:49.849Z,9.9392
2023-05-13T03:39:52.171Z,9.6540
2023-05-13T03:40:54.629Z,10.9614
2023-05-13T03:41:56.850Z,10.2780
2023-05-13T03:42:59.173Z,10.7039
2023-05-13T03:44:01.521Z,11.6078
2023-05-13T03:45:03.868Z,10.8173
2023-05-13T03:46:06.223Z,10.4813
2023-05-13T03:47:08.563Z,10.6096
2023-05-13T03:48:10.915Z,10.6308
2023-05-13T03:49:13.216Z,10.4755
2023-05-13T03:50:15.544Z,11.4062
2023-05-13T03:51:17.875Z,11.6189
2023-05-13T03:52:20.211Z,11.9274
2023-05-13T03:53:22.556Z,10.8330
2023-05-13T03:54:24.886Z,10.5473
2023-05-13T03:55:27.227Z,11.7187
2023-05-13T03:56:29.604Z,11.8997
2023-05-13T03:57:31.906Z,11.2665
2023-05-13T03:58:34.240Z,11.5052
2023-05-13T03:59:36.571Z,11.1968
2023-05-13T04:00:38.936Z,11.3634
2023-05-13T04:01:41.326Z,11.2535
2023-05-13T04:02:43.803Z,10.9890
2023-05-13T04:03:45.919Z,11.2266
2023-05-13T04:04:48.282Z,11.9598
2023-05-13T04:05:50.602Z,12.2631
2023-05-13T04:06:52.934Z,11.7771
2023-05-13T04:07:55.261Z,10.8962
2023-05-13T04:08:57.717Z,11.1969
2023-05-13T04:09:59.946Z,11.5310
2023-05-13T04:11:02.287Z,11.2224
2023-05-13T04:12:04.622Z,10.9669
2023-05-13T04:13:06.949Z,11.5262
2023-05-13T04:14:09.283Z,11.6376
2023-05-13T04:15:11.617Z,11.8133
2023-05-13T04:16:14.019Z,11.3322
2023-05-13T04:17:16.369Z,11.7572
2023-05-13T04:18:18.670Z,10.8082
2023-05-13T04:19:20.985Z,11.0240
2023-05-13T04:20:23.573Z,10.0971
2023-05-13T04:21:25.651Z,11.9086
2023-05-13T04:22:27.980Z,10.7929
2023-05-13T04:23:30.319Z,11.6074
2023-05-13T04:24:32.653Z,12.2600
2023-05-13T04:25:35.006Z,11.6510
2023-05-13T04:26:37.338Z,11.6261
2023-05-13T04:27:39.701Z,11.8845
2023-05-13T04:28:42.005Z,12.0824
2023-05-13T04:29:44.345Z,10.9541
2023-05-13T04:30:46.681Z,11.4346
2023-05-13T04:31:49.115Z,12.0346
2023-05-13T04:32:51.471Z,12.2981
2023-05-13T04:33:53.681Z,12.3266
2023-05-13T04:34:56.039Z,11.8733
2023-05-13T04:35:58.355Z,11.9059
2023-05-13T04:37:00.682Z,11.2236
2023-05-13T04:38:03.037Z,12.2293
2023-05-13T04:39:05.348Z,12.2168
2023-05-13T04:40:07.692Z,12.0091
2023-05-13T04:41:10.040Z,11.3093
2023-05-13T04:42:12.383Z,12.4952
2023-05-13T04:43:14.693Z,12.3842
2023-05-13T04:44:17.024Z,12.4939
2023-05-13T04:45:19.364Z,12.8384
2023-05-13T04:46:21.779Z,12.9627
2023-05-13T04:47:24.080Z,13.2348
2023-05-13T04:48:26.366Z,11.7474
2023-05-13T04:49:28.704Z,11.6769
2023-05-13T04:50:31.041Z,12.6145
2023-05-13T04:51:33.377Z,12.6816
2023-05-13T04:52:35.714Z,11.9693
2023-05-13T04:53:38.050Z,12.1288
2023-05-13T04:54:40.414Z,11.6258
2023-05-13T04:55:42.729Z,11.0155
2023-05-13T04:56:45.048Z,11.5717
2023-05-13T04:57:47.392Z,12.1976
2023-05-13T04:58:49.721Z,12.5798
2023-05-13T04:59:52.075Z,11.9236
2023-05-13T05:00:54.411Z,12.1715
2023-05-13T05:01:56.767Z,11.8423
2023-05-13T05:02:59.083Z,12.1905
2023-05-13T05:04:01.481Z,12.6933
2023-05-13T05:05:03.752Z,12.2737
2023-05-13T05:06:06.067Z,12.1097
2023-05-13T05:07:08.392Z,12.3798
2023-05-13T05:08:10.727Z,12.2672
2023-05-13T05:09:13.057Z,12.7628
2023-05-13T05:10:15.403Z,12.3905
2023-05-13T05:11:17.724Z,11.7260
2023-05-13T05:12:20.055Z,11.4073
2023-05-13T05:13:22.391Z,11.7503
2023-05-13T05:14:24.730Z,11.5136
2023-05-13T05:15:27.079Z,12.1546
2023-05-13T05:16:29.393Z,10.9669
2023-05-13T05:17:31.887Z,12.1058
2023-05-13T05:18:34.096Z,11.4119
2023-05-13T05:19:36.385Z,11.9105
2023-05-13T05:20:38.726Z,11.3599
2023-05-13T05:21:41.047Z,10.4827
2023-05-13T05:22:43.389Z,11.3491
2023-05-13T05:23:45.724Z,12.4246
2023-05-13T05:24:48.077Z,11.4138
2023-05-13T05:26:00.520Z,12.6351
2023-05-13T05:26:52.720Z,11.7874
2023-05-13T05:27:55.064Z,12.5779
2023-05-13T05:28:57.405Z,12.4318
2023-05-13T05:29:59.764Z,11.1516
2023-05-13T05:31:02.058Z,11.4289
2023-05-13T05:32:04.419Z,11.0714
2023-05-13T05:33:06.758Z,11.4096
2023-05-13T05:34:09.080Z,12.3830
2023-05-13T05:35:11.399Z,11.8201
2023-05-13T05:36:13.740Z,12.3555
2023-05-13T05:37:16.057Z,12.4227
2023-05-13T05:38:18.391Z,12.1455
2023-05-13T05:39:20.739Z,11.3816
2023-05-13T05:40:23.397Z,11.5528
2023-05-13T05:41:25.411Z,11.8140
2023-05-13T05:42:27.733Z,12.1942
2023-05-13T05:43:30.058Z,11.9025
2023-05-13T05:44:32.607Z,12.4268
2023-05-13T05:45:34.737Z,12.3763
2023-05-13T05:46:37.058Z,11.3707
2023-05-13T05:47:39.423Z,11.8737
2023-05-13T05:48:41.730Z,12.4318
2023-05-13T05:49:44.096Z,12.0296
2023-05-13T05:50:46.400Z,11.9367
2023-05-13T05:51:48.760Z,12.5655
2023-05-13T05:52:51.068Z,11.9857
2023-05-13T05:53:53.414Z,11.8551
2023-05-13T05:54:55.757Z,11.9639
2023-05-13T05:55:58.079Z,12.2190
2023-05-13T05:57:00.414Z,12.5322
2023-05-13T05:58:02.756Z,11.4846
2023-05-13T05:59:05.099Z,11.4042
2023-05-13T06:00:07.464Z,12.1312
2023-05-13T06:01:09.755Z,12.1663
2023-05-13T06:02:12.121Z,12.8021
2023-05-13T06:03:14.608Z,12.4158
2023-05-13T06:04:16.817Z,12.4226
2023-05-13T06:05:19.109Z,12.7573
2023-05-13T06:06:21.427Z,11.9804
2023-05-13T06:07:23.761Z,13.6710
2023-05-13T06:08:26.104Z,12.7518
2023-05-13T06:09:28.425Z,12.6377
2023-05-13T06:10:30.778Z,12.3625
2023-05-13T06:11:33.097Z,12.4584
2023-05-13T06:12:35.424Z,12.1611
2023-05-13T06:13:37.785Z,11.8499
2023-05-13T06:14:40.106Z,11.6371
2023-05-13T06:15:42.485Z,11.4132
2023-05-13T06:16:44.771Z,11.4532
2023-05-13T06:17:47.110Z,11.1566
2023-05-13T06:18:49.448Z,11.9932
2023-05-13T06:19:51.794Z,11.8644
2023-05-13T06:20:54.132Z,11.6623
2023-05-13T06:21:56.448Z,11.0945
2023-05-13T06:22:58.788Z,11.1933
2023-05-13T06:24:01.123Z,12.1469
2023-05-13T06:25:03.470Z,11.5330
2023-05-13T06:26:05.795Z,12.1112
2023-05-13T06:27:08.117Z,11.5936
2023-05-13T06:28:10.480Z,11.6287
2023-05-13T06:29:12.791Z,11.2545
2023-05-13T06:30:15.155Z,11.4342
2023-05-13T06:31:17.492Z,11.1787
2023-05-13T06:32:19.798Z,11.9351
2023-05-13T06:33:22.178Z,12.2279
2023-05-13T06:34:24.480Z,11.5097
2023-05-13T06:35:26.806Z,12.2012
2023-05-13T06:36:29.135Z,11.9802
2023-05-13T06:37:31.474Z,10.8095
2023-05-13T06:38:33.807Z,11.2423
2023-05-13T06:39:36.149Z,11.3056
2023-05-13T06:40:38.519Z,11.4907
2023-05-13T06:41:40.839Z,10.7790
2023-05-13T06:42:43.157Z,11.6479
2023-05-13T06:43:45.527Z,10.6970
2023-05-13T06:44:47.839Z,11.1434
2023-05-13T06:45:50.304Z,10.7152
2023-05-13T06:46:52.515Z,10.9151
2023-05-13T06:47:54.888Z,11.2280
2023-05-13T06:48:57.179Z,11.2173
2023-05-13T06:49:59.522Z,11.3863
2023-05-13T06:51:01.880Z,10.7166
2023-05-13T06:52:04.191Z,11.3270
2023-05-13T06:53:06.539Z,11.4202
2023-05-13T06:54:08.855Z,11.3835
2023-05-13T06:55:11.199Z,11.6221
2023-05-13T06:56:13.562Z,11.7552
2023-05-13T06:57:15.895Z,12.5249
2023-05-13T06:58:18.211Z,11.8962
2023-05-13T06:59:20.539Z,11.8410
2023-05-13T07:00:23.017Z,11.4889
2023-05-13T07:01:25.325Z,11.2897
2023-05-13T07:02:27.607Z,10.7718
2023-05-13T07:03:29.938Z,10.6526
2023-05-13T07:04:32.229Z,10.7797
2023-05-13T07:05:34.557Z,10.6952
2023-05-13T07:06:36.916Z,11.3257
2023-05-13T07:07:39.240Z,11.0126
2023-05-13T07:08:41.573Z,11.1744
2023-05-13T07:09:43.934Z,11.3774
2023-05-13T07:10:46.248Z,10.2073
2023-05-13T07:11:48.600Z,10.9221
2023-05-13T07:12:50.946Z,10.7172
2023-05-13T07:13:53.342Z,10.4773
2023-05-13T07:14:55.684Z,11.2032
2023-05-13T07:15:58.017Z,10.9234
2023-05-13T07:17:00.425Z,10.4766
2023-05-13T07:18:02.816Z,10.5568
2023-05-13T07:19:05.073Z,11.3013
2023-05-13T07:20:07.410Z,10.6462
2023-05-13T07:21:09.714Z,9.1744
2023-05-13T07:22:12.045Z,8.9777
2023-05-13T07:23:14.385Z,8.5754
2023-05-13T07:24:16.699Z,9.4944
2023-05-13T07:25:19.118Z,9.2782
2023-05-13T07:26:21.386Z,9.4214
2023-05-13T07:27:23.725Z,9.4452
2023-05-13T07:28:26.071Z,9.2014
2023-05-13T07:29:28.388Z,9.3848
2023-05-13T07:30:30.763Z,9.2745
2023-05-13T07:31:33.082Z,10.0958
2023-05-13T07:32:35.418Z,9.7172
2023-05-13T07:33:37.761Z,8.5719
2023-05-13T07:34:40.067Z,8.7540
2023-05-13T07:35:42.408Z,8.5432
2023-05-13T07:36:44.750Z,9.7820
2023-05-13T07:37:47.077Z,8.6360
2023-05-13T07:38:49.451Z,9.6678
2023-05-13T07:39:51.779Z,9.2272
2023-05-13T07:40:54.098Z,9.3289
2023-05-13T07:41:56.436Z,8.8382
2023-05-13T07:42:58.808Z,8.8277
2023-05-13T07:44:01.120Z,9.8234
2023-05-13T07:45:03.449Z,9.9546
2023-05-13T07:46:05.787Z,9.8547
2023-05-13T07:47:08.152Z,10.4298
2023-05-13T07:48:10.505Z,9.6136
2023-05-13T07:49:12.823Z,9.4237
2023-05-13T07:50:15.159Z,9.4904
2023-05-13T07:51:17.478Z,9.0949
2023-05-13T07:52:19.820Z,8.6993
2023-05-13T07:53:22.164Z,8.0976
2023-05-13T07:54:24.522Z,9.2317
2023-05-13T07:55:26.832Z,9.2417
2023-05-13T07:56:29.176Z,8.9838
2023-05-13T07:57:31.521Z,8.6578
2023-05-13T07:58:33.863Z,9.1014
2023-05-13T07:59:36.202Z,9.1856
2023-05-13T08:00:38.592Z,8.7202
2023-05-13T08:01:40.861Z,8.9309
2023-05-13T08:02:43.253Z,9.0991
2023-05-13T08:03:45.676Z,9.1311
2023-05-13T08:04:47.982Z,8.7471
2023-05-13T08:05:50.214Z,8.5231
2023-05-13T08:06:52.543Z,9.2517
2023-05-13T08:07:54.885Z,8.8137
2023-05-13T08:08:57.235Z,9.5336
2023-05-13T08:09:59.566Z,9.7192
2023-05-13T08:11:01.893Z,9.3701
2023-05-13T08:12:04.238Z,8.9365
2023-05-13T08:13:06.568Z,8.3858
2023-05-13T08:14:08.915Z,8.9012
2023-05-13T08:15:11.261Z,8.5475
2023-05-13T08:16:13.599Z,8.2768
2023-05-13T08:17:15.938Z,8.9445
2023-05-13T08:18:18.254Z,8.8182
2023-05-13T08:19:20.631Z,9.1941
2023-05-13T08:20:23.074Z,9.4706
2023-05-13T08:21:25.253Z,9.2675
2023-05-13T08:22:27.631Z,8.8776
2023-05-13T08:23:43.497Z,8.2784
2023-05-13T08:24:32.283Z,7.9636
2023-05-13T08:25:34.616Z,8.7266
2023-05-13T08:26:36.950Z,8.5089
2023-05-13T08:27:39.267Z,8.2973
2023-05-13T08:28:42.588Z,7.9277
2023-05-13T08:29:44.011Z,8.7030
2023-05-13T08:30:46.325Z,8.0230
2023-05-13T08:31:48.666Z,7.1633
2023-05-13T08:32:51.007Z,8.0323
2023-05-13T08:33:53.329Z,8.2293
2023-05-13T08:34:55.653Z,8.4711
2023-05-13T08:35:57.959Z,8.7100
2023-05-13T08:37:00.304Z,7.9938
2023-05-13T08:38:02.633Z,8.0237
2023-05-13T08:39:04.996Z,8.2472
2023-05-13T08:40:07.329Z,8.5947
2023-05-13T08:41:09.645Z,8.7320
2023-05-13T08:42:11.973Z,9.2418
2023-05-13T08:43:14.305Z,9.3832
2023-05-13T08:44:16.644Z,8.1793
2023-05-13T08:45:19.034Z,8.8815
2023-05-13T08:46:21.336Z,9.3664
2023-05-13T08:47:23.912Z,8.7705
2023-05-13T08:48:25.990Z,9.3873
2023-05-13T08:49:28.365Z,9.1094
2023-05-13T08:50:30.696Z,9.1089
2023-05-13T08:51:33.027Z,9.6877
2023-05-13T08:52:35.345Z,9.9992
2023-05-13T08:53:37.684Z,9.5162
2023-05-13T08:54:40.047Z,9.7026
2023-05-13T08:55:42.373Z,9.2862
2023-05-13T08:56:44.733Z,10.3370
2023-05-13T08:57:47.036Z,10.0610
2023-05-13T08:58:49.423Z,10.3889
2023-05-13T08:59:51.779Z,10.4789
2023-05-13T09:00:54.144Z,10.5926
2023-05-13T09:01:56.374Z,10.4763
2023-05-13T09:02:58.807Z,9.6191
2023-05-13T09:04:01.094Z,9.7269
2023-05-13T09:05:03.444Z,8.7613
2023-05-13T09:06:05.827Z,10.0384
2023-05-13T09:07:08.189Z,10.3413
2023-05-13T09:08:10.488Z,10.1882
2023-05-13T09:09:12.761Z,10.8977
2023-05-13T09:10:15.060Z,9.6085
2023-05-13T09:11:17.397Z,8.4567
2023-05-13T09:12:19.734Z,9.4280
2023-05-13T09:13:22.221Z,9.5061
2023-05-13T09:14:24.422Z,11.1570
2023-05-13T09:15:26.771Z,10.7325
2023-05-13T09:16:30.160Z,10.6247
2023-05-13T09:17:31.482Z,10.5361
2023-05-13T09:18:33.952Z,10.3060
2023-05-13T09:19:36.230Z,10.5806
2023-05-13T09:20:38.492Z,8.6105
2023-05-13T09:21:40.770Z,9.6495
2023-05-13T09:22:43.105Z,9.6515
2023-05-13T09:23:45.445Z,9.0983
2023-05-13T09:24:47.802Z,8.4839
2023-05-13T09:25:50.114Z,8.2921
2023-05-13T09:26:52.543Z,10.0312
2023-05-13T09:27:55.186Z,10.0362
2023-05-13T09:28:57.210Z,10.1204
2023-05-13T09:29:59.473Z,9.7291
2023-05-13T09:31:01.906Z,9.1981
2023-05-13T09:32:04.145Z,9.5428
2023-05-13T09:33:07.169Z,8.6293
2023-05-13T09:34:08.830Z,8.8639
2023-05-13T09:35:11.163Z,8.7994
2023-05-13T09:36:13.530Z,8.6824
2023-05-13T09:37:15.857Z,8.6535
2023-05-13T09:38:27.656Z,8.6178
2023-05-13T09:39:20.541Z,9.4905
2023-05-13T09:40:23.029Z,10.2039
2023-05-13T09:41:25.258Z,9.3638
2023-05-13T09:42:27.513Z,8.3200
2023-05-13T09:43:29.886Z,10.1416
2023-05-13T09:44:32.227Z,8.1823
2023-05-13T09:45:34.561Z,8.5489
2023-05-13T09:46:36.966Z,9.4604
2023-05-13T09:47:39.317Z,8.2687
2023-05-13T09:48:41.667Z,8.5477
2023-05-13T09:49:43.888Z,9.1461
2023-05-13T09:50:46.216Z,7.8130
2023-05-13T09:51:48.941Z,8.7228
2023-05-13T09:52:52.504Z,8.8937
2023-05-13T09:53:53.262Z,8.1234
2023-05-13T09:54:55.631Z,8.4220
2023-05-13T09:55:57.969Z,9.5959
2023-05-13T09:57:00.281Z,9.8052
2023-05-13T09:58:02.655Z,9.4105
2023-05-13T09:59:04.998Z,9.2502
2023-05-13T10:00:09.407Z,9.7073
2023-05-13T10:01:09.662Z,9.0627
2023-05-13T10:02:12.045Z,8.0459
2023-05-13T10:03:14.388Z,9.4965
2023-05-13T10:04:16.774Z,9.7243
2023-05-13T10:05:18.973Z,9.5027
2023-05-13T10:06:21.327Z,9.0601
2023-05-13T10:07:23.664Z,9.4402
2023-05-13T10:08:26.026Z,8.8145
2023-05-13T10:09:28.357Z,8.8111
2023-05-13T10:10:30.667Z,8.6114
2023-05-13T10:11:33.008Z,9.3051
2023-05-13T10:12:35.356Z,8.7160
2023-05-13T10:13:37.702Z,8.2070
2023-05-13T10:14:40.021Z,9.1008
2023-05-13T10:15:42.420Z,8.2987
2023-05-13T10:16:44.719Z,7.9691
2023-05-13T10:17:47.121Z,8.1404
2023-05-13T10:18:49.425Z,8.8216
2023-05-13T10:19:51.716Z,7.5345
2023-05-13T10:20:54.353Z,8.4653
2023-05-13T10:21:56.419Z,8.9051
2023-05-13T10:22:58.745Z,8.7112
2023-05-13T10:24:01.113Z,7.2713
2023-05-13T10:25:03.407Z,8.3562
2023-05-13T10:26:05.754Z,7.6371
2023-05-13T10:27:08.091Z,7.9176
2023-05-13T10:28:10.432Z,7.3911
2023-05-13T10:29:12.796Z,8.1744
2023-05-13T10:30:15.113Z,8.5412
2023-05-13T10:31:17.514Z,8.2660
2023-05-13T10:32:19.807Z,8.2183
2023-05-13T10:33:22.157Z,8.4093
2023-05-13T10:34:24.494Z,8.6346
2023-05-13T10:35:26.805Z,8.7907
2023-05-13T10:36:29.156Z,8.3627
2023-05-13T10:37:31.481Z,8.5337
2023-05-13T10:38:33.814Z,8.6676
2023-05-13T10:39:36.193Z,8.2408
2023-05-13T10:40:38.490Z,7.6547
2023-05-13T10:41:40.827Z,7.9993
2023-05-13T10:42:43.255Z,8.2347
2023-05-13T10:43:45.513Z,8.1165
2023-05-13T10:44:47.860Z,7.7255
2023-05-13T10:45:50.222Z,7.8506
2023-05-13T10:46:52.673Z,7.6279
2023-05-13T10:47:55.001Z,8.2469
2023-05-13T10:48:57.220Z,8.4246
2023-05-13T10:49:59.574Z,9.0426
2023-05-13T10:51:01.873Z,8.8166
2023-05-13T10:52:04.253Z,8.2517
2023-05-13T10:53:06.562Z,8.6263
2023-05-13T10:54:08.909Z,8.5708
2023-05-13T10:55:11.226Z,8.6504
2023-05-13T10:56:13.582Z,8.7716
2023-05-13T10:57:17.798Z,8.7101
2023-05-13T10:58:18.239Z,9.0809
2023-05-13T10:59:20.548Z,8.8977
2023-05-13T11:00:23.313Z,9.8422
2023-05-13T11:01:25.305Z,8.8431
2023-05-13T11:02:27.661Z,8.3396
2023-05-13T11:03:30.090Z,8.1082
2023-05-13T11:04:32.357Z,8.1028
2023-05-13T11:05:34.600Z,8.8433
2023-05-13T11:06:36.975Z,9.2648
2023-05-13T11:07:39.382Z,8.2969
2023-05-13T11:08:41.683Z,9.2850
2023-05-13T11:09:43.947Z,8.3164
2023-05-13T11:10:46.315Z,8.5721
2023-05-13T11:11:48.639Z,8.6651
2023-05-13T11:12:50.950Z,8.5158
2023-05-13T11:13:53.414Z,8.7994
2023-05-13T11:14:56.004Z,8.3573
2023-05-13T11:15:58.022Z,8.7527
2023-05-13T11:17:00.354Z,8.0446
2023-05-13T11:18:02.805Z,8.5464
2023-05-13T11:19:05.156Z,8.8287
2023-05-13T11:20:07.393Z,8.4031
2023-05-13T11:21:09.738Z,7.8530
2023-05-13T11:22:12.113Z,7.9869
2023-05-13T11:23:14.414Z,7.6433
2023-05-13T11:24:16.768Z,7.9523
2023-05-13T11:25:19.132Z,7.7220
2023-05-13T11:26:21.683Z,7.3992
2023-05-13T11:27:23.778Z,7.1747
2023-05-13T11:28:26.209Z,6.1784
2023-05-13T11:29:28.532Z,7.5118
2023-05-13T11:30:30.846Z,7.9916
2023-05-13T11:31:33.203Z,7.9708
2023-05-13T11:32:35.522Z,7.5686
2023-05-13T11:33:37.866Z,7.1400
2023-05-13T11:34:40.201Z,7.6929
2023-05-13T11:35:42.600Z,8.0350
2023-05-13T11:36:44.884Z,7.1817
2023-05-13T11:37:47.199Z,7.2805
2023-05-13T11:38:49.581Z,7.3998
2023-05-13T11:39:51.946Z,7.8267
2023-05-13T11:40:54.472Z,7.8023
2023-05-13T11:41:56.938Z,7.3709
2023-05-13T11:42:59.294Z,7.1650
2023-05-13T11:44:01.231Z,7.5187
2023-05-13T11:45:03.614Z,7.2669
2023-05-13T11:46:06.066Z,7.0944
2023-05-13T11:47:17.613Z,7.4246
2023-05-13T11:48:10.741Z,6.6540
2023-05-13T11:49:13.085Z,6.7835
2023-05-13T11:50:15.272Z,6.2625
2023-05-13T11:51:17.614Z,6.8310
2023-05-13T11:52:19.968Z,6.2829
2023-05-13T11:53:22.299Z,7.3674
2023-05-13T11:54:24.926Z,6.9139
2023-05-13T11:55:26.957Z,5.2844
2023-05-13T11:56:29.336Z,6.4817
2023-05-13T11:57:31.656Z,6.6637
2023-05-13T11:58:34.052Z,6.1596
2023-05-13T11:59:47.575Z,6.0604
2023-05-13T12:00:38.694Z,5.2212
2023-05-13T12:01:41.065Z,6.4299
2023-05-13T12:02:43.466Z,5.9276
2023-05-13T12:03:46.523Z,6.4890
2023-05-13T12:04:48.095Z,6.4494
2023-05-13T12:05:50.389Z,7.1187
2023-05-13T12:06:52.746Z,6.4360
2023-05-13T12:07:55.252Z,6.9271
2023-05-13T12:08:58.134Z,6.0728
2023-05-13T12:09:59.963Z,6.6469
2023-05-13T12:11:02.124Z,6.1852
2023-05-13T12:12:04.444Z,6.2614
2023-05-13T12:13:06.856Z,5.9975
2023-05-13T12:14:09.182Z,5.9771
2023-05-13T12:15:11.499Z,6.8029
2023-05-13T12:16:14.609Z,6.5537
2023-05-13T12:17:16.226Z,6.8374
2023-05-13T12:18:18.487Z,6.8675
2023-05-13T12:19:20.848Z,6.4568
2023-05-13T12:20:23.197Z,7.2542
2023-05-13T12:21:25.528Z,7.3436
2023-05-13T12:22:28.001Z,6.9244
2023-05-13T12:23:30.182Z,6.9903
2023-05-13T12:24:32.664Z,6.8851
2023-05-13T12:25:35.044Z,7.0856
2023-05-13T12:26:37.380Z,6.9505
2023-05-13T12:27:39.648Z,6.4189
2023-05-13T12:28:42.185Z,7.1190
2023-05-13T12:29:44.322Z,6.8837
2023-05-13T12:30:46.726Z,6.4588
2023-05-13T12:31:49.336Z,6.2033
2023-05-13T12:32:51.268Z,7.2210
2023-05-13T12:33:53.736Z,6.9921
2023-05-13T12:34:55.981Z,6.5736
2023-05-13T12:35:58.289Z,6.4733
2023-05-13T12:37:00.710Z,6.2528
2023-05-13T12:38:03.003Z,6.4825
2023-05-13T12:39:05.897Z,6.5437
2023-05-13T12:40:08.152Z,6.6648
2023-05-13T12:41:10.006Z,6.4998
2023-05-13T12:42:12.334Z,7.1079
2023-05-13T12:43:14.709Z,7.3657
2023-05-13T12:44:17.095Z,7.0211
2023-05-13T12:45:19.484Z,7.0864
2023-05-13T12:46:21.788Z,6.1238
2023-05-13T12:47:24.090Z,7.0060
2023-05-13T12:48:26.429Z,6.5658